Wilson Norfolk — 9HA2466 — position and weather

sailwx.info

Track history (hours):
 
Tides and Currents Weather Stations Pressure Air Temp Water Temp Dewpoint Dewpoint Depression Visibility Wind Speed Wind Dir Waves Ship Positions

Wilson Norfolk

Last reported at 2017-Mar-30 22:33 UTC. Time now 2017-Mar-30 22:43 UTC.
Position N 36°09' W 007°21'.

Length 123 m; draft 7.4 m.

Type: Cargo ship. MMSI: 248678000.

Date/timePositionNaut miles runAvg speedWind from/ knotsBaromVisibWave heightAir tempDewpointWater temp
2017-Mar-30 22:33N 36°09' W 007°21'1212.2
2017-Mar-30 21:33N 36°12' W 007°36'1312.4
2017-Mar-30 20:31N 36°15' W 007°51'1212.1
2017-Mar-30 19:31N 36°18' W 008°06'1412.2
2017-Mar-30 18:23N 36°22' W 008°22'1012.4
2017-Mar-30 17:33N 36°25' W 008°35'1612.2
2017-Mar-30 16:16N 36°29' W 008°53'912.1
2017-Mar-30 15:33N 36°31' W 009°04'1212.0
2017-Mar-30 14:33N 36°35' W 009°18'1211.8
2017-Mar-30 13:32N 36°44' W 009°28'4611.5
2017-Mar-30 09:30N 37°28' W 009°44'1212.0
2017-Mar-30 08:28N 37°40' W 009°48'1112.0
2017-Mar-30 07:33N 37°51' W 009°52'1211.7
2017-Mar-30 06:33N 38°02' W 009°55'1211.9
2017-Mar-30 05:33N 38°14' W 009°58'1111.5
2017-Mar-30 04:33N 38°25' W 010°01'1211.8
2017-Mar-30 03:33N 38°36' W 010°05'1211.8
2017-Mar-30 02:33N 38°48' W 010°06'1111.3
2017-Mar-30 01:33N 38°59' W 010°06'1111.4
2017-Mar-30 00:33N 39°11' W 010°07'1211.6
2017-Mar-29 23:33N 39°23' W 010°07'1211.8
2017-Mar-29 22:33N 39°34' W 010°06'1211.7
2017-Mar-29 21:33N 39°46' W 010°06'1211.5
2017-Mar-29 20:33N 39°58' W 010°07'1111.3
2017-Mar-29 19:33N 40°09' W 010°07'  
2017-Mar-27 09:28N 48°50' W 005°49'1314.2
2017-Mar-27 08:33N 48°59' W 005°34'1413.9
2017-Mar-27 07:33N 49°06' W 005°16'1313.1
2017-Mar-27 06:33N 49°12' W 004°58'1212.0
2017-Mar-27 05:33N 49°18' W 004°42'1111.1
2017-Mar-27 04:33N 49°23' W 004°28'1210.9
2017-Mar-27 03:30N 49°29' W 004°12'2812.2
2017-Mar-27 01:14N 49°44' W 003°36'913.9
2017-Mar-27 00:33N 49°48' W 003°23'1414.4
2017-Mar-26 23:33N 49°56' W 003°04'1613.9
2017-Mar-26 22:26N 50°01' W 002°41'2211.8
2017-Mar-26 20:34N 50°07' W 002°08'10 9.7
2017-Mar-26 19:34N 50°10' W 001°54'9 9.2
2017-Mar-26 18:33N 50°13' W 001°40'10 9.7
2017-Mar-26 17:34N 50°16' W 001°26'1111.0
2017-Mar-26 16:34N 50°19' W 001°10'1313.1
2017-Mar-26 15:33N 50°23' W 000°50'1414.2
2017-Mar-26 14:34N 50°27' W 000°28'1414.2
2017-Mar-26 13:33N 50°31' W 000°07'1413.9
2017-Mar-26 12:33N 50°34' E 000°14'1313.3
2017-Mar-26 11:33N 50°38' E 000°34'1212.5
2017-Mar-26 10:33N 50°45' E 000°50'1311.6
2017-Mar-26 09:29N 50°53' E 001°06'1111.8
2017-Mar-26 08:33N 51°00' E 001°19'1413.7
2017-Mar-26 07:34N 51°09' E 001°36'1414.4
2017-Mar-26 06:33N 51°20' E 001°50'1414.0
2017-Mar-26 05:34N 51°33' E 001°58'1512.9
2017-Mar-26 04:25N 51°47' E 002°07'1011.5
2017-Mar-26 03:31N 51°57' E 002°10'1010.7
2017-Mar-26 02:34N 52°07' E 002°06'1210.4
2017-Mar-26 01:23N 52°19' E 002°02'1010.3
2017-Mar-26 00:27N 52°29' E 001°59'910.0
2017-Mar-25 23:31N 52°38' E 001°56'1010.0
2017-Mar-25 22:33N 52°46' E 001°49'1111.3
2017-Mar-25 21:33N 52°55' E 001°37'1211.9
2017-Mar-25 20:34N 53°04' E 001°23'1212.2
2017-Mar-25 19:34N 53°13' E 001°10'1212.4
2017-Mar-25 18:33N 53°22' E 000°55'1212.3
2017-Mar-25 17:33N 53°28' E 000°37'1211.9
2017-Mar-25 16:33N 53°32' E 000°19'1110.7
2017-Mar-25 15:33N 53°35' E 000°01'8 7.7
2017-Mar-25 14:31N 53°38' W 000°11'0 0.4
2017-Mar-25 13:31N 53°38' W 000°12'0 0.0
2017-Mar-25 12:31N 53°38' W 000°12'0 0.0
2017-Mar-25 11:31N 53°38' W 000°12'0 0.0
2017-Mar-25 10:31N 53°38' W 000°12'0 0.0
2017-Mar-25 09:31N 53°38' W 000°12'0 0.0
2017-Mar-25 08:31N 53°38' W 000°12'0 0.0
2017-Mar-25 07:31N 53°38' W 000°12'0 0.0
2017-Mar-25 06:31N 53°38' W 000°12'0 0.0
2017-Mar-25 05:31N 53°38' W 000°12'0 0.0
2017-Mar-25 04:31N 53°38' W 000°12'0 0.0
2017-Mar-25 03:31N 53°38' W 000°12'0 0.0
2017-Mar-25 02:31N 53°38' W 000°12'0 0.0
2017-Mar-25 01:31N 53°38' W 000°12'0 0.0
2017-Mar-25 00:31N 53°38' W 000°12'0 0.0
2017-Mar-24 23:31N 53°38' W 000°12'0 0.0
2017-Mar-24 22:31N 53°38' W 000°12'0 0.0
2017-Mar-24 21:31N 53°38' W 000°12'0 0.1
2017-Mar-24 20:31N 53°38' W 000°12'0 0.0
2017-Mar-24 19:31N 53°38' W 000°12'0 0.0
2017-Mar-24 18:31N 53°38' W 000°12'0 0.0
2017-Mar-24 17:31N 53°38' W 000°12'0 0.0
2017-Mar-24 16:31N 53°38' W 000°12'0 0.0
2017-Mar-24 15:31N 53°38' W 000°12'0 0.0
2017-Mar-24 14:31N 53°38' W 000°12'0 0.0
2017-Mar-24 13:31N 53°38' W 000°12'0 0.0
2017-Mar-24 12:31N 53°38' W 000°12'0 0.0
2017-Mar-24 11:31N 53°38' W 000°12'0 0.0
2017-Mar-24 10:28N 53°38' W 000°12'0 0.0
2017-Mar-24 09:31N 53°38' W 000°12'0 0.0
2017-Mar-24 08:31N 53°38' W 000°12'0 0.0
2017-Mar-24 07:31N 53°38' W 000°12'0 0.0
2017-Mar-24 06:31N 53°38' W 000°12'0 0.0
2017-Mar-24 05:31N 53°38' W 000°12'0 0.0
2017-Mar-24 04:31N 53°38' W 000°12'0 0.1
2017-Mar-24 03:31N 53°38' W 000°12'0 0.0
2017-Mar-24 02:28N 53°38' W 000°12'0 0.0
2017-Mar-24 01:31N 53°38' W 000°12'0 0.0
2017-Mar-24 00:31N 53°38' W 000°12'0 0.0
2017-Mar-23 23:28N 53°38' W 000°12'0 0.0
2017-Mar-23 22:31N 53°38' W 000°12'0 0.0
2017-Mar-23 21:31N 53°38' W 000°12'0 0.2
2017-Mar-23 20:31N 53°38' W 000°12'0 0.0
2017-Mar-23 19:31N 53°38' W 000°12'0 0.0
2017-Mar-23 18:31N 53°38' W 000°12'0 0.0
2017-Mar-23 17:31N 53°38' W 000°12'0 0.0
2017-Mar-23 16:31N 53°38' W 000°12'0 0.0
2017-Mar-23 15:31N 53°38' W 000°12'0 0.0
2017-Mar-23 14:31N 53°38' W 000°12'0 0.0
2017-Mar-23 13:28N 53°38' W 000°12'0 0.0
2017-Mar-23 12:31N 53°38' W 000°12'0 0.0
2017-Mar-23 11:31N 53°38' W 000°12'0 0.0
2017-Mar-23 10:31N 53°38' W 000°12'0 0.0
2017-Mar-23 09:31N 53°38' W 000°12'0 0.0
2017-Mar-23 08:31N 53°38' W 000°12'0 0.0
2017-Mar-23 07:31N 53°38' W 000°12'0 0.0
2017-Mar-23 06:31N 53°38' W 000°12'0 0.0
2017-Mar-23 05:31N 53°38' W 000°12'0 0.0
2017-Mar-23 04:31N 53°38' W 000°12'0 0.0
2017-Mar-23 03:31N 53°38' W 000°12'0 0.0
2017-Mar-23 02:31N 53°38' W 000°12'0 0.0
2017-Mar-23 01:31N 53°38' W 000°12'0 0.0
2017-Mar-23 00:31N 53°38' W 000°12'0 0.0
2017-Mar-22 23:31N 53°38' W 000°12'0 0.0
2017-Mar-22 22:31N 53°38' W 000°12'0 0.0
2017-Mar-22 21:31N 53°38' W 000°12'0 0.0
2017-Mar-22 20:31N 53°38' W 000°12'0 0.0
2017-Mar-22 19:31N 53°38' W 000°12'0 0.0
2017-Mar-22 18:31N 53°38' W 000°12'0 0.0
2017-Mar-22 17:31N 53°38' W 000°12'0 0.0
2017-Mar-22 16:31N 53°38' W 000°12'0 0.0
2017-Mar-22 15:31N 53°38' W 000°12'0 0.0
2017-Mar-22 14:31N 53°38' W 000°12'0 0.0
2017-Mar-22 13:31N 53°38' W 000°12'0 0.0
2017-Mar-22 12:31N 53°38' W 000°12'0 0.0
2017-Mar-22 11:31N 53°38' W 000°12'0 0.0
2017-Mar-22 10:31N 53°38' W 000°12'0 0.0
2017-Mar-22 09:31N 53°38' W 000°12'0 0.1
2017-Mar-22 08:31N 53°38' W 000°12'0 0.0
2017-Mar-22 07:25N 53°38' W 000°12'0 0.0
2017-Mar-22 06:07N 53°38' W 000°12'0 0.0
2017-Mar-22 05:28N 53°38' W 000°12'0 0.0
2017-Mar-22 04:31N 53°38' W 000°12'0 0.0
2017-Mar-22 03:28N 53°38' W 000°12'0 0.0
2017-Mar-22 02:28N 53°38' W 000°12'0 0.0
2017-Mar-22 01:28N 53°38' W 000°12'0 0.0
2017-Mar-22 00:31N 53°38' W 000°12'0 0.0
2017-Mar-21 23:28N 53°38' W 000°12'0 0.0
2017-Mar-21 22:28N 53°38' W 000°12'0 0.0
2017-Mar-21 21:31N 53°38' W 000°12'0 0.0
2017-Mar-21 20:28N 53°38' W 000°12'0 0.0
2017-Mar-21 19:31N 53°38' W 000°12'0 0.0
2017-Mar-21 18:31N 53°38' W 000°12'0 0.0
2017-Mar-21 17:31N 53°38' W 000°12'0 0.0
2017-Mar-21 16:31N 53°38' W 000°12'0 0.0
2017-Mar-21 15:31N 53°38' W 000°12'0 0.0
2017-Mar-21 14:31N 53°38' W 000°12'0 0.0
2017-Mar-21 13:31N 53°38' W 000°12'0 0.0
2017-Mar-21 12:31N 53°38' W 000°12'0 0.0
2017-Mar-21 11:31N 53°38' W 000°12'0 0.0
2017-Mar-21 10:31N 53°38' W 000°12'0 0.0
2017-Mar-21 09:31N 53°38' W 000°12'0 0.0
2017-Mar-21 08:31N 53°38' W 000°12'0 0.0
2017-Mar-21 07:31N 53°38' W 000°12'0 0.0
2017-Mar-21 06:31N 53°38' W 000°12'0 0.0
2017-Mar-21 05:31N 53°38' W 000°12'0 0.0
2017-Mar-21 04:31N 53°38' W 000°12'0 0.0
2017-Mar-21 03:31N 53°38' W 000°12'0 0.0
2017-Mar-21 02:31N 53°38' W 000°12'0 0.0
2017-Mar-21 01:31N 53°38' W 000°12'0 0.0
2017-Mar-21 00:31N 53°38' W 000°12'0 0.0
2017-Mar-20 23:31N 53°38' W 000°12'  
Track history (hours):
 
Tides and Currents Weather Stations Pressure Air Temp Water Temp Dewpoint Dewpoint Depression Visibility Wind Speed Wind Dir Waves Ship Positions

Wilson Norfolk

Last reported at 2017-Mar-30 22:33 UTC. Time now 2017-Mar-30 22:43 UTC.
Position N 36°09' W 007°21'.

Length 123 m; draft 7.4 m.

Type: Cargo ship. MMSI: 248678000.

Date/timePositionNaut miles runAvg speedWind from/ knotsBaromVisibWave heightAir tempDewpointWater temp
2017-Mar-30 22:33N 36°09' W 007°21'1212.2
2017-Mar-30 21:33N 36°12' W 007°36'1312.4
2017-Mar-30 20:31N 36°15' W 007°51'1212.1
2017-Mar-30 19:31N 36°18' W 008°06'1412.2
2017-Mar-30 18:23N 36°22' W 008°22'1012.4
2017-Mar-30 17:33N 36°25' W 008°35'1612.2
2017-Mar-30 16:16N 36°29' W 008°53'912.1
2017-Mar-30 15:33N 36°31' W 009°04'1212.0
2017-Mar-30 14:33N 36°35' W 009°18'1211.8
2017-Mar-30 13:32N 36°44' W 009°28'4611.5
2017-Mar-30 09:30N 37°28' W 009°44'1212.0
2017-Mar-30 08:28N 37°40' W 009°48'1112.0
2017-Mar-30 07:33N 37°51' W 009°52'1211.7
2017-Mar-30 06:33N 38°02' W 009°55'1211.9
2017-Mar-30 05:33N 38°14' W 009°58'1111.5
2017-Mar-30 04:33N 38°25' W 010°01'1211.8
2017-Mar-30 03:33N 38°36' W 010°05'1211.8
2017-Mar-30 02:33N 38°48' W 010°06'1111.3
2017-Mar-30 01:33N 38°59' W 010°06'1111.4
2017-Mar-30 00:33N 39°11' W 010°07'1211.6
2017-Mar-29 23:33N 39°23' W 010°07'1211.8
2017-Mar-29 22:33N 39°34' W 010°06'1211.7
2017-Mar-29 21:33N 39°46' W 010°06'1211.5
2017-Mar-29 20:33N 39°58' W 010°07'1111.3
2017-Mar-29 19:33N 40°09' W 010°07'  
2017-Mar-27 09:28N 48°50' W 005°49'1314.2
2017-Mar-27 08:33N 48°59' W 005°34'1413.9
2017-Mar-27 07:33N 49°06' W 005°16'1313.1
2017-Mar-27 06:33N 49°12' W 004°58'1212.0
2017-Mar-27 05:33N 49°18' W 004°42'1111.1
2017-Mar-27 04:33N 49°23' W 004°28'1210.9
2017-Mar-27 03:30N 49°29' W 004°12'2812.2
2017-Mar-27 01:14N 49°44' W 003°36'913.9
2017-Mar-27 00:33N 49°48' W 003°23'1414.4
2017-Mar-26 23:33N 49°56' W 003°04'1613.9
2017-Mar-26 22:26N 50°01' W 002°41'2211.8
2017-Mar-26 20:34N 50°07' W 002°08'10 9.7
2017-Mar-26 19:34N 50°10' W 001°54'9 9.2
2017-Mar-26 18:33N 50°13' W 001°40'10 9.7
2017-Mar-26 17:34N 50°16' W 001°26'1111.0
2017-Mar-26 16:34N 50°19' W 001°10'1313.1
2017-Mar-26 15:33N 50°23' W 000°50'1414.2
2017-Mar-26 14:34N 50°27' W 000°28'1414.2
2017-Mar-26 13:33N 50°31' W 000°07'1413.9
2017-Mar-26 12:33N 50°34' E 000°14'1313.3
2017-Mar-26 11:33N 50°38' E 000°34'1212.5
2017-Mar-26 10:33N 50°45' E 000°50'1311.6
2017-Mar-26 09:29N 50°53' E 001°06'1111.8
2017-Mar-26 08:33N 51°00' E 001°19'1413.7
2017-Mar-26 07:34N 51°09' E 001°36'1414.4
2017-Mar-26 06:33N 51°20' E 001°50'1414.0
2017-Mar-26 05:34N 51°33' E 001°58'1512.9
2017-Mar-26 04:25N 51°47' E 002°07'1011.5
2017-Mar-26 03:31N 51°57' E 002°10'1010.7
2017-Mar-26 02:34N 52°07' E 002°06'1210.4
2017-Mar-26 01:23N 52°19' E 002°02'1010.3
2017-Mar-26 00:27N 52°29' E 001°59'910.0
2017-Mar-25 23:31N 52°38' E 001°56'1010.0
2017-Mar-25 22:33N 52°46' E 001°49'1111.3
2017-Mar-25 21:33N 52°55' E 001°37'1211.9
2017-Mar-25 20:34N 53°04' E 001°23'1212.2
2017-Mar-25 19:34N 53°13' E 001°10'1212.4
2017-Mar-25 18:33N 53°22' E 000°55'1212.3
2017-Mar-25 17:33N 53°28' E 000°37'1211.9
2017-Mar-25 16:33N 53°32' E 000°19'1110.7
2017-Mar-25 15:33N 53°35' E 000°01'8 7.7
2017-Mar-25 14:31N 53°38' W 000°11'0 0.4
2017-Mar-25 13:31N 53°38' W 000°12'0 0.0
2017-Mar-25 12:31N 53°38' W 000°12'0 0.0
2017-Mar-25 11:31N 53°38' W 000°12'0 0.0
2017-Mar-25 10:31N 53°38' W 000°12'0 0.0
2017-Mar-25 09:31N 53°38' W 000°12'0 0.0
2017-Mar-25 08:31N 53°38' W 000°12'0 0.0
2017-Mar-25 07:31N 53°38' W 000°12'0 0.0
2017-Mar-25 06:31N 53°38' W 000°12'0 0.0
2017-Mar-25 05:31N 53°38' W 000°12'0 0.0
2017-Mar-25 04:31N 53°38' W 000°12'0 0.0
2017-Mar-25 03:31N 53°38' W 000°12'0 0.0
2017-Mar-25 02:31N 53°38' W 000°12'0 0.0
2017-Mar-25 01:31N 53°38' W 000°12'0 0.0
2017-Mar-25 00:31N 53°38' W 000°12'0 0.0
2017-Mar-24 23:31N 53°38' W 000°12'0 0.0
2017-Mar-24 22:31N 53°38' W 000°12'0 0.0
2017-Mar-24 21:31N 53°38' W 000°12'0 0.1
2017-Mar-24 20:31N 53°38' W 000°12'0 0.0
2017-Mar-24 19:31N 53°38' W 000°12'0 0.0
2017-Mar-24 18:31N 53°38' W 000°12'0 0.0
2017-Mar-24 17:31N 53°38' W 000°12'0 0.0
2017-Mar-24 16:31N 53°38' W 000°12'0 0.0
2017-Mar-24 15:31N 53°38' W 000°12'0 0.0
2017-Mar-24 14:31N 53°38' W 000°12'0 0.0
2017-Mar-24 13:31N 53°38' W 000°12'0 0.0
2017-Mar-24 12:31N 53°38' W 000°12'0 0.0
2017-Mar-24 11:31N 53°38' W 000°12'0 0.0
2017-Mar-24 10:28N 53°38' W 000°12'0 0.0
2017-Mar-24 09:31N 53°38' W 000°12'0 0.0
2017-Mar-24 08:31N 53°38' W 000°12'0 0.0
2017-Mar-24 07:31N 53°38' W 000°12'0 0.0
2017-Mar-24 06:31N 53°38' W 000°12'0 0.0
2017-Mar-24 05:31N 53°38' W 000°12'0 0.0
2017-Mar-24 04:31N 53°38' W 000°12'0 0.1
2017-Mar-24 03:31N 53°38' W 000°12'0 0.0
2017-Mar-24 02:28N 53°38' W 000°12'0 0.0
2017-Mar-24 01:31N 53°38' W 000°12'0 0.0
2017-Mar-24 00:31N 53°38' W 000°12'0 0.0
2017-Mar-23 23:28N 53°38' W 000°12'0 0.0
2017-Mar-23 22:31N 53°38' W 000°12'0 0.0
2017-Mar-23 21:31N 53°38' W 000°12'0 0.2
2017-Mar-23 20:31N 53°38' W 000°12'0 0.0
2017-Mar-23 19:31N 53°38' W 000°12'0 0.0
2017-Mar-23 18:31N 53°38' W 000°12'0 0.0
2017-Mar-23 17:31N 53°38' W 000°12'0 0.0
2017-Mar-23 16:31N 53°38' W 000°12'0 0.0
2017-Mar-23 15:31N 53°38' W 000°12'0 0.0
2017-Mar-23 14:31N 53°38' W 000°12'0 0.0
2017-Mar-23 13:28N 53°38' W 000°12'0 0.0
2017-Mar-23 12:31N 53°38' W 000°12'0 0.0
2017-Mar-23 11:31N 53°38' W 000°12'0 0.0
2017-Mar-23 10:31N 53°38' W 000°12'0 0.0
2017-Mar-23 09:31N 53°38' W 000°12'0 0.0
2017-Mar-23 08:31N 53°38' W 000°12'0 0.0
2017-Mar-23 07:31N 53°38' W 000°12'0 0.0
2017-Mar-23 06:31N 53°38' W 000°12'0 0.0
2017-Mar-23 05:31N 53°38' W 000°12'0 0.0
2017-Mar-23 04:31N 53°38' W 000°12'0 0.0
2017-Mar-23 03:31N 53°38' W 000°12'0 0.0
2017-Mar-23 02:31N 53°38' W 000°12'0 0.0
2017-Mar-23 01:31N 53°38' W 000°12'0 0.0
2017-Mar-23 00:31N 53°38' W 000°12'0 0.0
2017-Mar-22 23:31N 53°38' W 000°12'0 0.0
2017-Mar-22 22:31N 53°38' W 000°12'0 0.0
2017-Mar-22 21:31N 53°38' W 000°12'0 0.0
2017-Mar-22 20:31N 53°38' W 000°12'0 0.0
2017-Mar-22 19:31N 53°38' W 000°12'0 0.0
2017-Mar-22 18:31N 53°38' W 000°12'0 0.0
2017-Mar-22 17:31N 53°38' W 000°12'0 0.0
2017-Mar-22 16:31N 53°38' W 000°12'0 0.0
2017-Mar-22 15:31N 53°38' W 000°12'0 0.0
2017-Mar-22 14:31N 53°38' W 000°12'0 0.0
2017-Mar-22 13:31N 53°38' W 000°12'0 0.0
2017-Mar-22 12:31N 53°38' W 000°12'0 0.0
2017-Mar-22 11:31N 53°38' W 000°12'0 0.0
2017-Mar-22 10:31N 53°38' W 000°12'0 0.0
2017-Mar-22 09:31N 53°38' W 000°12'0 0.1
2017-Mar-22 08:31N 53°38' W 000°12'0 0.0
2017-Mar-22 07:25N 53°38' W 000°12'0 0.0
2017-Mar-22 06:07N 53°38' W 000°12'0 0.0
2017-Mar-22 05:28N 53°38' W 000°12'0 0.0
2017-Mar-22 04:31N 53°38' W 000°12'0 0.0
2017-Mar-22 03:28N 53°38' W 000°12'0 0.0
2017-Mar-22 02:28N 53°38' W 000°12'0 0.0
2017-Mar-22 01:28N 53°38' W 000°12'0 0.0
2017-Mar-22 00:31N 53°38' W 000°12'0 0.0
2017-Mar-21 23:28N 53°38' W 000°12'0 0.0
2017-Mar-21 22:28N 53°38' W 000°12'0 0.0
2017-Mar-21 21:31N 53°38' W 000°12'0 0.0
2017-Mar-21 20:28N 53°38' W 000°12'0 0.0
2017-Mar-21 19:31N 53°38' W 000°12'0 0.0
2017-Mar-21 18:31N 53°38' W 000°12'0 0.0
2017-Mar-21 17:31N 53°38' W 000°12'0 0.0
2017-Mar-21 16:31N 53°38' W 000°12'0 0.0
2017-Mar-21 15:31N 53°38' W 000°12'0 0.0
2017-Mar-21 14:31N 53°38' W 000°12'0 0.0
2017-Mar-21 13:31N 53°38' W 000°12'0 0.0
2017-Mar-21 12:31N 53°38' W 000°12'0 0.0
2017-Mar-21 11:31N 53°38' W 000°12'0 0.0
2017-Mar-21 10:31N 53°38' W 000°12'0 0.0
2017-Mar-21 09:31N 53°38' W 000°12'0 0.0
2017-Mar-21 08:31N 53°38' W 000°12'0 0.0
2017-Mar-21 07:31N 53°38' W 000°12'0 0.0
2017-Mar-21 06:31N 53°38' W 000°12'0 0.0
2017-Mar-21 05:31N 53°38' W 000°12'0 0.0
2017-Mar-21 04:31N 53°38' W 000°12'0 0.0
2017-Mar-21 03:31N 53°38' W 000°12'0 0.0
2017-Mar-21 02:31N 53°38' W 000°12'0 0.0
2017-Mar-21 01:31N 53°38' W 000°12'0 0.0
2017-Mar-21 00:31N 53°38' W 000°12'0 0.0
2017-Mar-20 23:31N 53°38' W 000°12'  

Dump ship's entire track history